Time,TemperatureF,DewpointF,PressureIn,WindDirection,WindDirectionDegrees,WindSpeedMPH,WindSpeedGustMPH,Humidity,HourlyPrecipIn,Conditions,Clouds,dailyrainin,SolarRadiationWatts/m^2,SoftwareType,DateUTC
2017-03-29 00:03:00,35.2,30.0,29.98,SSE,165,0.0,0.0,81,0.00,,,0.00,0.00,Weather logger V3.0.,2017-03-29 04:03:00,
2017-03-29 00:04:00,35.2,30.0,29.98,SSE,168,0.0,0.0,81,0.00,,,0.00,0.00,Weather logger V3.0.,2017-03-29 04:04:00,
2017-03-29 00:09:00,35.2,30.0,29.97,SSE,163,0.0,0.0,81,0.00,,,0.00,0.00,Weather logger V3.0.,2017-03-29 04:09:00,
2017-03-29 00:14:00,35.2,30.0,29.98,SSE,165,0.0,0.0,81,0.00,,,0.00,0.00,Weather logger V3.0.,2017-03-29 04:14:00,
2017-03-29 00:19:00,35.2,30.0,29.98,SSE,168,0.0,0.0,81,0.00,,,0.00,0.00,Weather logger V3.0.,2017-03-29 04:19:00,
2017-03-29 00:25:00,35.2,30.0,29.98,South,172,0.0,0.0,81,0.00,,,0.00,0.00,Weather logger V3.0.,2017-03-29 04:25:00,
2017-03-29 00:30:00,35.2,30.0,29.98,SSE,164,0.0,0.0,81,0.00,,,0.00,0.00,Weather logger V3.0.,2017-03-29 04:30:00,
2017-03-29 00:35:00,35.2,30.0,29.98,South,174,0.0,0.0,81,0.00,,,0.00,0.00,Weather logger V3.0.,2017-03-29 04:35:00,
2017-03-29 00:40:00,35.2,30.0,29.98,SSE,163,0.0,0.0,81,0.00,,,0.00,0.00,Weather logger V3.0.,2017-03-29 04:40:00,
2017-03-29 00:45:00,35.2,30.0,29.98,South,169,0.0,0.0,81,0.00,,,0.00,0.00,Weather logger V3.0.,2017-03-29 04:45:00,
2017-03-29 00:50:00,35.2,30.0,29.98,SSE,163,0.0,0.0,81,0.00,,,0.00,0.00,Weather logger V3.0.,2017-03-29 04:50:00,
2017-03-29 00:55:00,35.2,30.0,29.98,SSE,163,0.0,0.0,81,0.00,,,0.00,0.00,Weather logger V3.0.,2017-03-29 04:55:00,
2017-03-29 01:00:00,35.2,30.0,29.97,SSE,163,0.0,0.0,81,0.00,,,0.00,0.00,Weather logger V3.0.,2017-03-29 05:00:00,
2017-03-29 01:05:00,35.1,29.8,29.97,SE,141,0.0,0.0,81,0.00,,,0.00,0.00,Weather logger V3.0.,2017-03-29 05:05:00,
2017-03-29 01:10:00,35.1,29.8,29.97,ENE,74,0.0,0.0,81,0.00,,,0.00,0.00,Weather logger V3.0.,2017-03-29 05:10:00,
2017-03-29 01:15:00,35.1,29.8,29.96,South,174,0.0,0.0,81,0.00,,,0.00,0.00,Weather logger V3.0.,2017-03-29 05:15:00,
2017-03-29 01:20:00,35.1,29.8,29.97,SSE,163,0.0,0.0,81,0.00,,,0.00,0.00,Weather logger V3.0.,2017-03-29 05:20:00,
2017-03-29 01:25:00,35.1,29.8,29.97,SSE,164,0.0,0.0,81,0.00,,,0.00,0.00,Weather logger V3.0.,2017-03-29 05:25:00,
2017-03-29 01:30:00,35.1,29.8,29.96,SSE,167,0.0,0.0,81,0.00,,,0.00,0.00,Weather logger V3.0.,2017-03-29 05:30:00,
2017-03-29 01:35:00,35.1,29.8,29.96,South,170,0.0,0.0,81,0.00,,,0.00,0.00,Weather logger V3.0.,2017-03-29 05:35:00,
2017-03-29 01:41:00,35.2,30.0,29.96,SSE,163,0.0,0.0,81,0.00,,,0.00,0.00,Weather logger V3.0.,2017-03-29 05:41:00,
2017-03-29 01:46:00,35.1,29.8,29.95,SSE,163,0.0,0.0,81,0.00,,,0.00,0.00,Weather logger V3.0.,2017-03-29 05:46:00,
2017-03-29 01:51:00,35.1,29.8,29.95,SSE,161,0.0,0.0,81,0.00,,,0.00,0.00,Weather logger V3.0.,2017-03-29 05:51:00,
2017-03-29 01:56:00,35.1,29.8,29.96,SE,124,0.0,0.0,81,0.00,,,0.00,0.00,Weather logger V3.0.,2017-03-29 05:56:00,
2017-03-29 02:01:00,35.1,29.8,29.96,SE,126,0.0,0.0,81,0.00,,,0.00,0.00,Weather logger V3.0.,2017-03-29 06:01:00,
2017-03-29 02:06:00,35.1,29.8,29.96,NNW,343,0.0,0.0,81,0.00,,,0.00,0.00,Weather logger V3.0.,2017-03-29 06:06:00,
2017-03-29 02:07:00,35.1,29.8,29.95,ESE,102,0.0,0.0,81,0.00,,,0.00,0.00,Weather logger V3.0.,2017-03-29 06:07:00,
2017-03-29 02:13:00,35.1,29.8,29.96,East,100,0.0,0.0,81,0.00,,,0.00,0.00,Weather logger V3.0.,2017-03-29 06:13:00,
2017-03-29 02:18:00,35.1,29.8,29.96,SE,138,0.0,0.0,81,0.00,,,0.00,0.00,Weather logger V3.0.,2017-03-29 06:18:00,
2017-03-29 02:23:00,35.2,30.0,29.96,East,96,0.0,0.0,81,0.00,,,0.00,0.00,Weather logger V3.0.,2017-03-29 06:23:00,
2017-03-29 02:28:00,35.2,30.0,29.95,NE,40,0.0,0.0,81,0.00,,,0.00,0.00,Weather logger V3.0.,2017-03-29 06:28:00,
2017-03-29 02:33:00,35.2,30.0,29.95,NNW,343,1.1,2.5,81,0.00,,,0.00,0.00,Weather logger V3.0.,2017-03-29 06:33:00,
2017-03-29 02:38:00,35.2,30.0,29.95,East,81,0.0,0.0,81,0.00,,,0.00,0.00,Weather logger V3.0.,2017-03-29 06:38:00,
2017-03-29 02:43:00,35.2,30.0,29.95,NE,56,0.0,0.0,81,0.00,,,0.00,0.00,Weather logger V3.0.,2017-03-29 06:43:00,
2017-03-29 02:48:00,35.2,30.4,29.95,ESE,107,0.0,0.0,82,0.00,,,0.00,0.00,Weather logger V3.0.,2017-03-29 06:48:00,
2017-03-29 02:53:00,35.2,30.4,29.95,East,84,0.0,0.0,82,0.00,,,0.00,0.00,Weather logger V3.0.,2017-03-29 06:53:00,
2017-03-29 02:58:00,35.2,30.4,29.95,ENE,62,0.0,0.0,82,0.00,,,0.00,0.00,Weather logger V3.0.,2017-03-29 06:58:00,
2017-03-29 03:03:00,35.2,30.4,29.96,NE,56,0.2,2.5,82,0.00,,,0.00,0.00,Weather logger V3.0.,2017-03-29 07:03:00,
2017-03-29 03:08:00,35.2,30.4,29.96,NNW,343,1.1,2.5,82,0.00,,,0.00,0.00,Weather logger V3.0.,2017-03-29 07:08:00,
2017-03-29 03:13:00,35.2,30.4,29.95,ENE,77,0.0,0.0,82,0.00,,,0.00,0.00,Weather logger V3.0.,2017-03-29 07:13:00,
2017-03-29 03:18:00,35.2,30.4,29.95,North,350,0.2,2.5,82,0.00,,,0.00,0.00,Weather logger V3.0.,2017-03-29 07:18:00,
2017-03-29 03:23:00,35.2,30.4,29.95,NNW,343,0.9,2.5,82,0.00,,,0.00,0.00,Weather logger V3.0.,2017-03-29 07:23:00,
2017-03-29 03:25:00,35.2,30.4,29.95,NNE,31,0.2,2.5,82,0.00,,,0.00,0.00,Weather logger V3.0.,2017-03-29 07:25:00,
2017-03-29 03:30:00,35.4,30.6,29.95,NNW,343,2.0,2.5,82,0.00,,,0.00,0.00,Weather logger V3.0.,2017-03-29 07:30:00,
2017-03-29 03:35:00,35.4,30.6,29.95,NNW,341,0.2,2.5,82,0.00,,,0.00,0.00,Weather logger V3.0.,2017-03-29 07:35:00,
2017-03-29 03:41:00,35.4,30.6,29.96,NNE,25,0.0,0.0,82,0.00,,,0.00,0.00,Weather logger V3.0.,2017-03-29 07:41:00,
2017-03-29 03:46:00,35.4,30.6,29.95,ENE,68,0.0,0.0,82,0.00,,,0.00,0.00,Weather logger V3.0.,2017-03-29 07:46:00,
2017-03-29 03:51:00,35.4,30.6,29.95,NNE,21,0.0,0.0,82,0.00,,,0.00,0.00,Weather logger V3.0.,2017-03-29 07:51:00,
2017-03-29 03:56:00,35.4,30.6,29.95,NNE,30,1.3,2.5,82,0.00,,,0.00,0.00,Weather logger V3.0.,2017-03-29 07:56:00,
2017-03-29 04:01:00,35.4,30.2,29.96,NNE,28,0.0,0.0,81,0.00,,,0.00,0.00,Weather logger V3.0.,2017-03-29 08:01:00,
2017-03-29 04:06:00,35.4,30.6,29.95,East,82,0.0,0.0,82,0.00,,,0.00,0.00,Weather logger V3.0.,2017-03-29 08:06:00,
2017-03-29 04:11:00,35.4,30.6,29.95,NNW,343,0.0,0.0,82,0.00,,,0.00,0.00,Weather logger V3.0.,2017-03-29 08:11:00,
2017-03-29 04:16:00,35.4,30.6,29.96,NNW,343,0.4,2.5,82,0.00,,,0.00,0.00,Weather logger V3.0.,2017-03-29 08:16:00,
2017-03-29 04:21:00,35.4,30.6,29.94,NNE,15,0.2,2.5,82,0.00,,,0.00,0.00,Weather logger V3.0.,2017-03-29 08:21:00,
2017-03-29 04:26:00,35.2,30.4,29.95,SE,130,0.0,0.0,82,0.00,,,0.00,0.00,Weather logger V3.0.,2017-03-29 08:26:00,
2017-03-29 04:31:00,35.2,30.4,29.95,East,81,0.0,0.0,82,0.00,,,0.00,0.00,Weather logger V3.0.,2017-03-29 08:31:00,
2017-03-29 04:36:00,35.2,30.4,29.95,ESE,116,0.0,0.0,82,0.00,,,0.00,0.00,Weather logger V3.0.,2017-03-29 08:36:00,
2017-03-29 04:41:00,35.1,30.2,29.95,ESE,106,0.0,0.0,82,0.00,,,0.00,0.00,Weather logger V3.0.,2017-03-29 08:41:00,
2017-03-29 04:46:00,35.1,30.2,29.96,ESE,109,0.0,0.0,82,0.00,,,0.00,0.00,Weather logger V3.0.,2017-03-29 08:46:00,
2017-03-29 04:51:00,34.9,30.0,29.95,East,89,0.0,0.0,82,0.00,,,0.00,0.00,Weather logger V3.0.,2017-03-29 08:51:00,
2017-03-29 04:57:00,34.9,30.0,29.95,ESE,111,0.0,0.0,82,0.00,,,0.00,0.00,Weather logger V3.0.,2017-03-29 08:57:00,
2017-03-29 05:02:00,34.9,30.0,29.95,East,86,0.0,0.0,82,0.00,,,0.00,0.00,Weather logger V3.0.,2017-03-29 09:02:00,
2017-03-29 05:07:00,34.9,30.0,29.96,ESE,120,0.0,0.0,82,0.00,,,0.00,0.00,Weather logger V3.0.,2017-03-29 09:07:00,
2017-03-29 05:12:00,34.9,30.0,29.96,SE,124,0.0,0.0,82,0.00,,,0.00,0.00,Weather logger V3.0.,2017-03-29 09:12:00,
2017-03-29 05:17:00,34.9,30.0,29.97,WSW,246,0.0,0.0,82,0.00,,,0.00,0.00,Weather logger V3.0.,2017-03-29 09:17:00,
2017-03-29 05:22:00,34.9,30.0,29.96,NW,314,0.0,0.0,82,0.00,,,0.00,0.00,Weather logger V3.0.,2017-03-29 09:22:00,
2017-03-29 05:27:00,34.9,30.0,29.96,NE,52,0.0,0.0,82,0.00,,,0.00,0.00,Weather logger V3.0.,2017-03-29 09:27:00,
2017-03-29 05:32:00,35.1,30.2,29.97,NNW,343,2.0,2.5,82,0.00,,,0.00,0.00,Weather logger V3.0.,2017-03-29 09:32:00,
2017-03-29 05:37:00,35.1,30.2,29.96,NW,318,0.4,2.5,82,0.00,,,0.00,0.00,Weather logger V3.0.,2017-03-29 09:37:00,
2017-03-29 05:42:00,35.1,30.2,29.96,WSW,251,0.0,0.0,82,0.00,,,0.00,0.00,Weather logger V3.0.,2017-03-29 09:42:00,
2017-03-29 05:47:00,35.1,30.2,29.97,North,8,1.8,2.5,82,0.00,,,0.00,0.00,Weather logger V3.0.,2017-03-29 09:47:00,
2017-03-29 05:52:00,35.2,30.0,29.97,NNW,345,0.9,2.5,81,0.00,,,0.00,0.00,Weather logger V3.0.,2017-03-29 09:52:00,
2017-03-29 05:57:00,35.2,30.0,29.97,NNW,339,2.0,2.5,81,0.00,,,0.00,0.00,Weather logger V3.0.,2017-03-29 09:57:00,
2017-03-29 06:02:00,35.4,30.2,29.96,NNW,343,1.8,2.5,81,0.00,,,0.00,0.00,Weather logger V3.0.,2017-03-29 10:02:00,
2017-03-29 06:07:00,35.4,30.2,29.97,NNW,344,2.0,2.5,81,0.00,,,0.00,0.00,Weather logger V3.0.,2017-03-29 10:07:00,
2017-03-29 06:13:00,35.4,30.2,29.97,NNW,343,2.5,2.5,81,0.00,,,0.00,0.00,Weather logger V3.0.,2017-03-29 10:13:00,
2017-03-29 06:18:00,35.6,30.4,29.96,NNW,343,4.0,4.9,81,0.00,,,0.00,0.00,Weather logger V3.0.,2017-03-29 10:18:00,
2017-03-29 06:23:00,35.6,30.4,29.97,NNW,343,4.2,4.9,81,0.00,,,0.00,0.00,Weather logger V3.0.,2017-03-29 10:23:00,
2017-03-29 06:28:00,35.8,30.6,29.97,NE,47,0.2,2.5,81,0.00,,,0.00,0.00,Weather logger V3.0.,2017-03-29 10:28:00,
2017-03-29 06:33:00,35.8,30.6,29.98,NE,45,1.1,2.5,81,0.00,,,0.00,0.00,Weather logger V3.0.,2017-03-29 10:33:00,
2017-03-29 06:38:00,36.0,30.7,29.98,NNE,27,4.5,4.9,81,0.00,,,0.00,0.66,Weather logger V3.0.,2017-03-29 10:38:00,
2017-03-29 06:43:00,36.0,30.7,29.98,NNW,343,2.9,4.9,81,0.00,,,0.00,2.10,Weather logger V3.0.,2017-03-29 10:43:00,
2017-03-29 06:48:00,36.0,30.7,29.97,NE,46,2.0,2.5,81,0.00,,,0.00,3.65,Weather logger V3.0.,2017-03-29 10:48:00,
2017-03-29 06:53:00,36.0,30.7,29.98,North,6,1.8,2.5,81,0.00,,,0.00,4.77,Weather logger V3.0.,2017-03-29 10:53:00,
2017-03-29 06:58:00,36.1,30.9,29.98,NNW,343,4.9,4.9,81,0.00,,,0.00,7.21,Weather logger V3.0.,2017-03-29 10:58:00,
2017-03-29 07:03:00,36.1,30.9,29.98,NNW,343,3.4,4.9,81,0.00,,,0.00,9.10,Weather logger V3.0.,2017-03-29 11:03:00,
2017-03-29 07:08:00,36.1,30.9,29.98,NNE,27,2.0,2.5,81,0.00,,,0.00,11.88,Weather logger V3.0.,2017-03-29 11:08:00,
2017-03-29 07:13:00,36.3,31.1,29.98,NNW,343,2.0,2.5,81,0.00,,,0.00,13.39,Weather logger V3.0.,2017-03-29 11:13:00,
2017-03-29 07:18:00,36.3,31.1,29.98,NNW,343,2.7,4.9,81,0.00,,,0.00,23.83,Weather logger V3.0.,2017-03-29 11:18:00,
2017-03-29 07:23:00,36.3,31.1,29.99,NNW,341,4.9,7.4,81,0.00,,,0.00,36.87,Weather logger V3.0.,2017-03-29 11:23:00,
2017-03-29 07:29:00,36.3,31.1,29.99,ENE,62,0.2,2.5,81,0.00,,,0.00,45.66,Weather logger V3.0.,2017-03-29 11:29:00,
2017-03-29 07:34:00,36.5,31.3,29.98,NNE,27,2.9,4.9,81,0.00,,,0.00,54.15,Weather logger V3.0.,2017-03-29 11:34:00,
2017-03-29 07:39:00,36.5,31.3,29.98,North,2,3.6,4.9,81,0.00,,,0.00,64.54,Weather logger V3.0.,2017-03-29 11:39:00,
2017-03-29 07:44:00,36.5,31.3,29.98,NNE,31,2.7,4.9,81,0.00,,,0.00,65.42,Weather logger V3.0.,2017-03-29 11:44:00,
2017-03-29 07:49:00,36.5,31.3,29.99,NE,39,2.9,4.9,81,0.00,,,0.00,65.95,Weather logger V3.0.,2017-03-29 11:49:00,
2017-03-29 07:54:00,36.5,31.3,29.99,NE,35,2.7,4.9,81,0.00,,,0.00,75.90,Weather logger V3.0.,2017-03-29 11:54:00,
2017-03-29 07:59:00,36.5,31.3,29.99,NNW,343,3.6,4.9,81,0.00,,,0.00,84.36,Weather logger V3.0.,2017-03-29 11:59:00,
2017-03-29 08:04:00,36.7,31.5,29.98,NNE,33,3.4,4.9,81,0.00,,,0.00,92.60,Weather logger V3.0.,2017-03-29 12:04:00,
2017-03-29 08:09:00,36.7,31.1,29.98,ENE,67,0.2,2.5,80,0.00,,,0.00,101.66,Weather logger V3.0.,2017-03-29 12:09:00,
2017-03-29 08:14:00,36.7,31.1,29.98,NNE,28,1.1,2.5,80,0.00,,,0.00,114.44,Weather logger V3.0.,2017-03-29 12:14:00,
2017-03-29 08:19:00,36.7,31.1,29.98,ENE,70,0.0,0.0,80,0.00,,,0.00,120.16,Weather logger V3.0.,2017-03-29 12:19:00,
2017-03-29 08:24:00,36.9,32.5,29.99,NNE,32,2.7,4.9,84,0.00,,,0.00,123.41,Weather logger V3.0.,2017-03-29 12:24:00,
2017-03-29 08:30:00,36.9,32.2,29.99,NNE,27,2.0,2.5,83,0.00,,,0.00,123.31,Weather logger V3.0.,2017-03-29 12:30:00,
2017-03-29 08:35:00,37.0,32.4,29.98,NE,38,1.8,2.5,83,0.00,,,0.00,138.60,Weather logger V3.0.,2017-03-29 12:35:00,
2017-03-29 08:41:00,37.0,32.0,29.98,NNW,343,2.0,2.5,82,0.00,,,0.00,146.39,Weather logger V3.0.,2017-03-29 12:41:00,
2017-03-29 08:46:00,37.2,32.0,29.98,NE,38,4.0,4.9,81,0.00,,,0.00,146.11,Weather logger V3.0.,2017-03-29 12:46:00,
2017-03-29 08:51:00,37.4,31.8,29.97,NNW,343,2.0,4.9,80,0.00,,,0.00,151.29,Weather logger V3.0.,2017-03-29 12:51:00,
2017-03-29 08:56:00,37.6,31.3,29.98,NE,37,5.8,7.4,78,0.00,,,0.00,157.47,Weather logger V3.0.,2017-03-29 12:56:00,
2017-03-29 09:01:00,37.6,30.4,29.98,East,94,0.0,0.0,75,0.00,,,0.00,159.43,Weather logger V3.0.,2017-03-29 13:01:00,
2017-03-29 09:06:00,37.8,28.9,29.97,NNE,29,4.2,7.4,70,0.00,,,0.00,166.60,Weather logger V3.0.,2017-03-29 13:06:00,
2017-03-29 09:11:00,37.8,26.2,29.98,NNW,344,3.4,4.9,63,0.00,,,0.00,162.90,Weather logger V3.0.,2017-03-29 13:11:00,
2017-03-29 09:16:00,37.8,24.8,29.98,ENE,77,0.9,2.5,59,0.00,,,0.00,166.79,Weather logger V3.0.,2017-03-29 13:16:00,
2017-03-29 09:21:00,37.9,23.7,29.98,NNE,17,4.5,4.9,56,0.00,,,0.00,162.18,Weather logger V3.0.,2017-03-29 13:21:00,
2017-03-29 09:26:00,37.9,23.2,29.98,NNW,343,9.6,12.3,55,0.00,,,0.00,184.56,Weather logger V3.0.,2017-03-29 13:26:00,
2017-03-29 09:31:00,37.9,22.8,29.98,ENE,61,4.9,7.4,54,0.00,,,0.00,204.48,Weather logger V3.0.,2017-03-29 13:31:00,
2017-03-29 09:36:00,37.9,22.8,29.98,NNW,343,2.0,2.5,54,0.00,,,0.00,206.98,Weather logger V3.0.,2017-03-29 13:36:00,
2017-03-29 09:41:00,38.1,22.5,29.97,NNE,12,3.6,4.9,53,0.00,,,0.00,222.19,Weather logger V3.0.,2017-03-29 13:41:00,
2017-03-29 09:46:00,38.3,22.3,29.98,NNE,33,1.3,2.5,52,0.00,,,0.00,189.74,Weather logger V3.0.,2017-03-29 13:46:00,
2017-03-29 09:51:00,38.3,22.6,29.98,NNW,343,4.2,4.9,53,0.00,,,0.00,192.55,Weather logger V3.0.,2017-03-29 13:51:00,
2017-03-29 09:57:00,38.5,22.8,29.98,NNW,343,1.8,2.5,53,0.00,,,0.00,161.67,Weather logger V3.0.,2017-03-29 13:57:00,
2017-03-29 10:02:00,38.7,23.0,29.98,NNW,344,4.5,4.9,53,0.00,,,0.00,173.58,Weather logger V3.0.,2017-03-29 14:02:00,
2017-03-29 10:07:00,38.8,22.6,29.98,NE,50,2.5,2.5,52,0.00,,,0.00,214.11,Weather logger V3.0.,2017-03-29 14:07:00,
2017-03-29 10:12:00,38.8,22.3,29.98,NNW,343,4.2,4.9,51,0.00,,,0.00,219.19,Weather logger V3.0.,2017-03-29 14:12:00,
2017-03-29 10:17:00,39.0,22.5,29.98,NNE,32,2.5,4.9,51,0.00,,,0.00,204.10,Weather logger V3.0.,2017-03-29 14:17:00,
2017-03-29 10:22:00,39.0,21.9,29.98,NNW,343,3.6,4.9,50,0.00,,,0.00,247.86,Weather logger V3.0.,2017-03-29 14:22:00,
2017-03-29 10:27:00,39.2,20.7,29.99,NNW,343,8.3,9.8,47,0.00,,,0.00,227.72,Weather logger V3.0.,2017-03-29 14:27:00,
2017-03-29 10:33:00,39.2,20.1,29.99,NNW,343,5.1,7.4,46,0.00,,,0.00,208.90,Weather logger V3.0.,2017-03-29 14:33:00,
2017-03-29 10:38:00,39.2,20.1,29.98,NNW,343,3.4,4.9,46,0.00,,,0.00,230.31,Weather logger V3.0.,2017-03-29 14:38:00,
2017-03-29 10:43:00,39.4,20.8,29.99,NNE,15,4.5,4.9,47,0.00,,,0.00,185.26,Weather logger V3.0.,2017-03-29 14:43:00,
2017-03-29 10:46:00,39.4,21.4,29.99,NNW,343,3.4,4.9,48,0.00,,,0.00,226.96,Weather logger V3.0.,2017-03-29 14:46:00,
2017-03-29 10:51:00,39.6,21.6,29.98,NNW,341,7.2,9.8,48,0.00,,,0.00,225.41,Weather logger V3.0.,2017-03-29 14:51:00,
2017-03-29 10:56:00,39.6,20.5,29.98,NNW,337,4.0,7.4,46,0.00,,,0.00,229.68,Weather logger V3.0.,2017-03-29 14:56:00,
2017-03-29 11:01:00,39.6,20.5,29.98,NNE,25,2.7,4.9,46,0.00,,,0.00,259.32,Weather logger V3.0.,2017-03-29 15:01:00,
2017-03-29 11:06:00,39.7,20.1,29.99,NNW,343,2.7,4.9,45,0.00,,,0.00,265.60,Weather logger V3.0.,2017-03-29 15:06:00,
2017-03-29 11:11:00,39.9,19.8,29.99,NNW,343,5.8,7.4,44,0.00,,,0.00,237.76,Weather logger V3.0.,2017-03-29 15:11:00,
2017-03-29 11:16:00,40.1,19.4,29.98,NNW,343,3.4,4.9,43,0.00,,,0.00,262.00,Weather logger V3.0.,2017-03-29 15:16:00,
2017-03-29 11:21:00,40.3,19.0,29.99,NNW,343,4.2,4.9,42,0.00,,,0.00,281.29,Weather logger V3.0.,2017-03-29 15:21:00,
2017-03-29 11:26:00,40.5,19.2,29.99,NNE,18,2.9,4.9,42,0.00,,,0.00,283.50,Weather logger V3.0.,2017-03-29 15:26:00,
2017-03-29 11:31:00,40.8,19.6,29.98,NNE,33,2.9,4.9,42,0.00,,,0.00,309.20,Weather logger V3.0.,2017-03-29 15:31:00,
2017-03-29 11:36:00,41.0,19.0,29.98,NNW,343,5.8,7.4,41,0.00,,,0.00,280.88,Weather logger V3.0.,2017-03-29 15:36:00,
2017-03-29 11:41:00,41.2,19.8,29.98,SSE,168,0.0,0.0,42,0.00,,,0.00,266.14,Weather logger V3.0.,2017-03-29 15:41:00,
2017-03-29 11:46:00,41.4,19.9,29.98,NE,54,0.0,0.0,42,0.00,,,0.00,278.04,Weather logger V3.0.,2017-03-29 15:46:00,
2017-03-29 11:51:00,41.4,19.4,29.98,NNW,342,2.5,4.9,41,0.00,,,0.00,312.08,Weather logger V3.0.,2017-03-29 15:51:00,
2017-03-29 11:57:00,41.5,19.0,29.97,NNE,22,1.1,2.5,40,0.00,,,0.00,300.24,Weather logger V3.0.,2017-03-29 15:57:00,
2017-03-29 12:02:00,41.7,19.2,29.98,NNW,330,7.6,9.8,40,0.00,,,0.00,308.29,Weather logger V3.0.,2017-03-29 16:02:00,
2017-03-29 12:07:00,41.9,19.4,29.98,NW,308,7.2,12.3,40,0.00,,,0.00,271.10,Weather logger V3.0.,2017-03-29 16:07:00,
2017-03-29 12:12:00,41.9,14.2,29.98,WNW,293,0.4,2.5,32,0.00,,,0.00,279.43,Weather logger V3.0.,2017-03-29 16:12:00,
2017-03-29 12:17:00,42.1,14.4,29.98,NNW,343,5.1,7.4,32,0.00,,,0.00,281.61,Weather logger V3.0.,2017-03-29 16:17:00,
2017-03-29 12:22:00,42.1,13.6,29.98,NNW,343,2.5,4.9,31,0.00,,,0.00,223.84,Weather logger V3.0.,2017-03-29 16:22:00,
2017-03-29 12:27:00,42.3,13.1,29.98,NNW,343,5.8,7.4,30,0.00,,,0.00,278.07,Weather logger V3.0.,2017-03-29 16:27:00,
2017-03-29 12:32:00,42.3,13.1,29.98,NNE,19,7.2,9.8,30,0.00,,,0.00,302.38,Weather logger V3.0.,2017-03-29 16:32:00,
2017-03-29 12:37:00,42.4,12.4,29.97,ENE,71,1.3,2.5,29,0.00,,,0.00,313.02,Weather logger V3.0.,2017-03-29 16:37:00,
2017-03-29 12:42:00,42.4,11.7,29.97,NW,318,7.6,9.8,28,0.00,,,0.00,322.27,Weather logger V3.0.,2017-03-29 16:42:00,
2017-03-29 12:47:00,42.6,10.2,29.97,NNW,336,6.5,7.4,26,0.00,,,0.00,272.90,Weather logger V3.0.,2017-03-29 16:47:00,
2017-03-29 12:52:00,42.8,9.5,29.97,NE,46,1.3,2.5,25,0.00,,,0.00,268.26,Weather logger V3.0.,2017-03-29 16:52:00,
2017-03-29 12:57:00,43.0,11.3,29.96,NW,319,7.6,9.8,27,0.00,,,0.00,195.30,Weather logger V3.0.,2017-03-29 16:57:00,
2017-03-29 13:02:00,43.0,12.0,29.97,NNW,342,8.7,12.3,28,0.00,,,0.00,162.59,Weather logger V3.0.,2017-03-29 17:02:00,
2017-03-29 13:07:00,43.0,11.3,29.97,NNW,343,3.4,4.9,27,0.00,,,0.00,185.76,Weather logger V3.0.,2017-03-29 17:07:00,
2017-03-29 13:13:00,42.8,14.2,29.97,NW,318,5.1,7.4,31,0.00,,,0.00,210.13,Weather logger V3.0.,2017-03-29 17:13:00,
2017-03-29 13:18:00,42.4,16.0,29.97,NW,304,7.4,12.3,34,0.00,,,0.00,202.15,Weather logger V3.0.,2017-03-29 17:18:00,
2017-03-29 13:23:00,42.3,17.2,29.96,NW,319,4.9,7.4,36,0.00,,,0.00,209.22,Weather logger V3.0.,2017-03-29 17:23:00,
2017-03-29 13:28:00,41.9,18.7,29.97,WNW,299,6.5,7.4,39,0.00,,,0.00,201.07,Weather logger V3.0.,2017-03-29 17:28:00,
2017-03-29 13:33:00,41.7,19.2,29.97,NW,318,3.6,4.9,40,0.00,,,0.00,208.33,Weather logger V3.0.,2017-03-29 17:33:00,
2017-03-29 13:38:00,41.5,19.0,29.96,NW,306,5.1,7.4,40,0.00,,,0.00,214.71,Weather logger V3.0.,2017-03-29 17:38:00,
2017-03-29 13:43:00,41.4,19.4,29.97,WNW,294,9.8,12.3,41,0.00,,,0.00,207.26,Weather logger V3.0.,2017-03-29 17:43:00,
2017-03-29 13:48:00,41.4,18.9,29.97,NW,319,7.6,12.3,40,0.00,,,0.00,137.17,Weather logger V3.0.,2017-03-29 17:48:00,
2017-03-29 13:53:00,41.4,18.3,29.97,NNW,338,10.7,12.3,39,0.00,,,0.00,136.35,Weather logger V3.0.,2017-03-29 17:53:00,
2017-03-29 13:58:00,41.4,18.3,29.98,NW,309,10.7,12.3,39,0.00,,,0.00,156.27,Weather logger V3.0.,2017-03-29 17:58:00,
2017-03-29 14:03:00,41.4,18.3,29.98,NNE,22,8.3,9.8,39,0.00,,,0.00,154.25,Weather logger V3.0.,2017-03-29 18:03:00,
2017-03-29 14:08:00,41.2,17.4,29.97,NNE,18,4.9,7.4,38,0.00,,,0.00,157.98,Weather logger V3.0.,2017-03-29 18:08:00,
2017-03-29 14:13:00,41.2,16.9,29.97,NNW,336,11.4,12.3,37,0.00,,,0.00,139.98,Weather logger V3.0.,2017-03-29 18:13:00,
2017-03-29 14:18:00,41.0,17.4,29.97,NNW,338,4.9,7.4,38,0.00,,,0.00,148.95,Weather logger V3.0.,2017-03-29 18:18:00,
2017-03-29 14:19:00,41.0,18.0,29.97,NNW,341,2.9,4.9,39,0.00,,,0.00,144.81,Weather logger V3.0.,2017-03-29 18:19:00,
2017-03-29 14:24:00,41.0,19.8,29.96,NNE,27,0.9,2.5,42,0.00,,,0.00,120.35,Weather logger V3.0.,2017-03-29 18:24:00,
2017-03-29 14:29:00,40.8,19.6,29.97,NE,34,7.6,9.8,42,0.00,,,0.00,142.92,Weather logger V3.0.,2017-03-29 18:29:00,
2017-03-29 14:34:00,40.6,17.1,29.98,NNE,18,4.5,7.4,38,0.00,,,0.00,140.90,Weather logger V3.0.,2017-03-29 18:34:00,
2017-03-29 14:39:00,40.6,15.8,29.97,NNW,343,5.8,7.4,36,0.00,,,0.00,138.91,Weather logger V3.0.,2017-03-29 18:39:00,
2017-03-29 14:45:00,40.6,14.5,29.98,NNW,336,6.7,9.8,34,0.00,,,0.00,132.60,Weather logger V3.0.,2017-03-29 18:45:00,
2017-03-29 14:50:00,40.6,13.8,29.98,NNW,342,6.7,9.8,33,0.00,,,0.00,131.21,Weather logger V3.0.,2017-03-29 18:50:00,
2017-03-29 14:55:00,40.8,14.0,29.97,NNW,343,2.5,4.9,33,0.00,,,0.00,137.55,Weather logger V3.0.,2017-03-29 18:55:00,
2017-03-29 15:00:00,40.8,14.0,29.97,NE,48,4.5,7.4,33,0.00,,,0.00,136.04,Weather logger V3.0.,2017-03-29 19:00:00,
2017-03-29 15:05:00,41.0,14.2,29.97,NNW,343,5.1,7.4,33,0.00,,,0.00,105.73,Weather logger V3.0.,2017-03-29 19:05:00,
2017-03-29 15:10:00,41.2,14.9,29.97,NNW,342,4.5,4.9,34,0.00,,,0.00,106.17,Weather logger V3.0.,2017-03-29 19:10:00,
2017-03-29 15:15:00,41.2,15.6,29.98,NNW,343,5.8,7.4,35,0.00,,,0.00,112.74,Weather logger V3.0.,2017-03-29 19:15:00,
2017-03-29 15:20:00,41.2,15.6,29.98,NNE,28,3.6,7.4,35,0.00,,,0.00,138.63,Weather logger V3.0.,2017-03-29 19:20:00,
2017-03-29 15:25:00,41.2,15.6,29.98,NNE,17,4.5,4.9,35,0.00,,,0.00,136.95,Weather logger V3.0.,2017-03-29 19:25:00,
2017-03-29 15:30:00,41.0,16.2,29.98,North,352,3.6,4.9,36,0.00,,,0.00,130.89,Weather logger V3.0.,2017-03-29 19:30:00,
2017-03-29 15:35:00,41.0,17.4,29.98,NNE,18,5.6,7.4,38,0.00,,,0.00,132.19,Weather logger V3.0.,2017-03-29 19:35:00,
2017-03-29 15:37:00,40.8,17.2,29.98,East,79,2.9,4.9,38,0.00,,,0.00,141.22,Weather logger V3.0.,2017-03-29 19:37:00,
2017-03-29 15:42:00,40.8,17.2,29.97,NNW,343,4.0,4.9,38,0.00,,,0.00,146.93,Weather logger V3.0.,2017-03-29 19:42:00,
2017-03-29 15:47:00,40.8,17.2,29.97,North,349,4.5,4.9,38,0.00,,,0.00,141.44,Weather logger V3.0.,2017-03-29 19:47:00,
2017-03-29 15:52:00,40.6,14.5,29.97,NNW,343,5.1,7.4,34,0.00,,,0.00,163.35,Weather logger V3.0.,2017-03-29 19:52:00,
2017-03-29 15:57:00,40.6,14.5,29.98,ENE,71,1.1,2.5,34,0.00,,,0.00,168.93,Weather logger V3.0.,2017-03-29 19:57:00,
2017-03-29 16:02:00,40.8,15.3,29.98,NE,39,2.5,2.5,35,0.00,,,0.00,151.10,Weather logger V3.0.,2017-03-29 20:02:00,
2017-03-29 16:07:00,40.8,16.0,29.98,NNW,342,4.5,4.9,36,0.00,,,0.00,102.64,Weather logger V3.0.,2017-03-29 20:07:00,
2017-03-29 16:12:00,40.8,19.6,29.98,NNE,19,8.9,9.8,42,0.00,,,0.00,80.03,Weather logger V3.0.,2017-03-29 20:12:00,
2017-03-29 16:17:00,40.5,24.3,29.98,East,93,4.9,7.4,52,0.00,,,0.00,94.18,Weather logger V3.0.,2017-03-29 20:17:00,
2017-03-29 16:22:00,39.9,23.7,29.97,NE,40,1.8,2.5,52,0.00,,,0.00,76.47,Weather logger V3.0.,2017-03-29 20:22:00,
2017-03-29 16:27:00,39.4,22.8,29.98,NNE,21,1.1,2.5,51,0.00,,,0.00,68.96,Weather logger V3.0.,2017-03-29 20:27:00,
2017-03-29 16:32:00,39.0,21.9,29.97,NNW,343,2.7,4.9,50,0.00,,,0.00,62.81,Weather logger V3.0.,2017-03-29 20:32:00,
2017-03-29 16:37:00,38.5,20.5,29.98,NNW,343,4.2,4.9,48,0.00,,,0.00,69.66,Weather logger V3.0.,2017-03-29 20:37:00,
2017-03-29 16:42:00,38.1,20.1,29.98,NNW,336,2.7,4.9,48,0.00,,,0.00,77.75,Weather logger V3.0.,2017-03-29 20:42:00,
2017-03-29 16:47:00,38.1,20.1,29.98,NNW,343,1.8,4.9,48,0.00,,,0.00,84.51,Weather logger V3.0.,2017-03-29 20:47:00,
2017-03-29 16:53:00,38.1,19.8,29.98,NNW,343,2.7,4.9,47,0.00,,,0.00,87.51,Weather logger V3.0.,2017-03-29 20:53:00,
2017-03-29 16:58:00,38.3,20.3,29.98,NNE,16,3.4,4.9,48,0.00,,,0.00,100.39,Weather logger V3.0.,2017-03-29 20:58:00,
2017-03-29 17:03:00,38.3,19.8,29.99,NNW,343,6.5,7.4,47,0.00,,,0.00,96.04,Weather logger V3.0.,2017-03-29 21:03:00,
2017-03-29 17:08:00,38.5,19.6,29.99,NNW,338,2.0,4.9,46,0.00,,,0.00,87.89,Weather logger V3.0.,2017-03-29 21:08:00,
2017-03-29 17:13:00,38.5,19.0,29.99,NNW,344,2.5,2.5,45,0.00,,,0.00,66.57,Weather logger V3.0.,2017-03-29 21:13:00,
2017-03-29 17:18:00,38.7,18.7,29.99,NNE,21,2.9,4.9,44,0.00,,,0.00,66.08,Weather logger V3.0.,2017-03-29 21:18:00,
2017-03-29 17:23:00,38.7,18.1,29.99,NNW,343,6.7,9.8,43,0.00,,,0.00,71.25,Weather logger V3.0.,2017-03-29 21:23:00,
2017-03-29 17:28:00,38.7,18.1,29.99,NNW,343,1.3,2.5,43,0.00,,,0.00,65.60,Weather logger V3.0.,2017-03-29 21:28:00,
2017-03-29 17:33:00,38.7,19.2,30.00,NNW,331,1.1,2.5,45,0.00,,,0.00,55.83,Weather logger V3.0.,2017-03-29 21:33:00,
2017-03-29 17:38:00,38.7,19.2,29.99,ENE,61,2.7,4.9,45,0.00,,,0.00,46.90,Weather logger V3.0.,2017-03-29 21:38:00,
2017-03-29 17:43:00,38.7,19.8,30.00,NNE,19,4.2,4.9,46,0.00,,,0.00,29.31,Weather logger V3.0.,2017-03-29 21:43:00,
2017-03-29 17:48:00,38.5,19.9,29.99,NNW,343,4.5,7.4,47,0.00,,,0.00,28.43,Weather logger V3.0.,2017-03-29 21:48:00,
2017-03-29 17:53:00,38.3,19.4,29.99,NNW,343,2.7,4.9,46,0.00,,,0.00,22.77,Weather logger V3.0.,2017-03-29 21:53:00,
2017-03-29 17:58:00,38.3,19.4,29.99,North,355,1.3,2.5,46,0.00,,,0.00,21.75,Weather logger V3.0.,2017-03-29 21:58:00,
2017-03-29 18:03:00,38.1,18.7,30.00,NNE,21,1.3,2.5,45,0.00,,,0.00,23.34,Weather logger V3.0.,2017-03-29 22:03:00,
2017-03-29 18:09:00,38.1,18.7,30.01,NNE,14,3.4,4.9,45,0.00,,,0.00,28.51,Weather logger V3.0.,2017-03-29 22:09:00,
2017-03-29 18:14:00,38.1,18.1,30.00,ENE,68,0.0,0.0,44,0.00,,,0.00,28.16,Weather logger V3.0.,2017-03-29 22:14:00,
2017-03-29 18:19:00,38.1,18.1,30.01,NNW,343,2.7,4.9,44,0.00,,,0.00,18.61,Weather logger V3.0.,2017-03-29 22:19:00,
2017-03-29 18:24:00,38.3,18.3,30.00,NNW,340,1.8,2.5,44,0.00,,,0.00,17.60,Weather logger V3.0.,2017-03-29 22:24:00,
2017-03-29 18:29:00,38.3,18.3,30.00,NNW,339,1.3,2.5,44,0.00,,,0.00,20.29,Weather logger V3.0.,2017-03-29 22:29:00,
2017-03-29 18:34:00,38.3,18.3,30.00,ENE,61,0.0,0.0,44,0.00,,,0.00,25.07,Weather logger V3.0.,2017-03-29 22:34:00,
2017-03-29 18:39:00,38.3,18.3,30.00,NW,326,0.9,2.5,44,0.00,,,0.00,15.83,Weather logger V3.0.,2017-03-29 22:39:00,
2017-03-29 18:44:00,38.1,18.1,30.01,NNW,340,0.0,0.0,44,0.00,,,0.00,10.04,Weather logger V3.0.,2017-03-29 22:44:00,
2017-03-29 18:49:00,38.1,18.1,30.01,NNW,343,0.4,2.5,44,0.00,,,0.00,5.57,Weather logger V3.0.,2017-03-29 22:49:00,
2017-03-29 18:54:00,37.9,18.0,30.01,SSE,164,0.0,0.0,44,0.00,,,0.00,2.82,Weather logger V3.0.,2017-03-29 22:54:00,
2017-03-29 18:59:00,37.9,18.0,30.01,WNW,291,0.0,0.0,44,0.00,,,0.00,1.05,Weather logger V3.0.,2017-03-29 22:59:00,
2017-03-29 19:04:00,37.8,18.3,30.01,WSW,251,0.2,2.5,45,0.00,,,0.00,0.00,Weather logger V3.0.,2017-03-29 23:04:00,
2017-03-29 19:09:00,37.8,17.8,30.02,NW,317,0.9,2.5,44,0.00,,,0.00,0.00,Weather logger V3.0.,2017-03-29 23:09:00,
2017-03-29 19:14:00,37.8,17.2,30.01,NNW,348,1.1,2.5,43,0.00,,,0.00,0.00,Weather logger V3.0.,2017-03-29 23:14:00,
2017-03-29 19:19:00,37.8,16.7,30.02,NNW,343,1.3,2.5,42,0.00,,,0.00,0.00,Weather logger V3.0.,2017-03-29 23:19:00,
2017-03-29 19:20:00,37.8,16.7,30.02,NNW,343,1.3,2.5,42,0.00,,,0.00,0.00,Weather logger V3.0.,2017-03-29 23:20:00,
2017-03-29 19:25:00,37.8,15.1,30.03,NNW,345,3.4,4.9,39,0.00,,,0.00,0.00,Weather logger V3.0.,2017-03-29 23:25:00,
2017-03-29 19:30:00,37.9,13.3,30.03,NW,325,3.4,4.9,36,0.00,,,0.00,0.00,Weather logger V3.0.,2017-03-29 23:30:00,
2017-03-29 19:35:00,37.9,12.7,30.03,NNW,330,2.5,4.9,35,0.00,,,0.00,0.00,Weather logger V3.0.,2017-03-29 23:35:00,
2017-03-29 19:41:00,38.1,12.2,30.03,NNW,343,2.5,2.5,34,0.00,,,0.00,0.00,Weather logger V3.0.,2017-03-29 23:41:00,
2017-03-29 19:46:00,38.3,12.4,30.04,NNW,342,2.9,4.9,34,0.00,,,0.00,0.00,Weather logger V3.0.,2017-03-29 23:46:00,
2017-03-29 19:51:00,38.5,12.6,30.03,NNW,343,1.8,2.5,34,0.00,,,0.00,0.00,Weather logger V3.0.,2017-03-29 23:51:00,
2017-03-29 19:56:00,38.7,12.0,30.04,NNW,343,2.9,4.9,33,0.00,,,0.00,0.00,Weather logger V3.0.,2017-03-29 23:56:00,
2017-03-29 20:01:00,38.7,12.0,30.05,NNW,343,3.4,4.9,33,0.00,,,0.00,0.00,Weather logger V3.0.,2017-03-30 00:01:00,
2017-03-29 20:06:00,38.7,12.0,30.05,NW,325,1.1,2.5,33,0.00,,,0.00,0.00,Weather logger V3.0.,2017-03-30 00:06:00,
2017-03-29 20:11:00,38.7,12.0,30.05,NNW,343,1.3,2.5,33,0.00,,,0.00,0.00,Weather logger V3.0.,2017-03-30 00:11:00,
2017-03-29 20:16:00,38.7,12.0,30.06,NNW,332,0.9,2.5,33,0.00,,,0.00,0.00,Weather logger V3.0.,2017-03-30 00:16:00,
2017-03-29 20:21:00,38.5,11.8,30.06,NNW,343,1.8,2.5,33,0.00,,,0.00,0.00,Weather logger V3.0.,2017-03-30 00:21:00,
2017-03-29 20:26:00,38.5,11.1,30.06,WNW,298,0.9,2.5,32,0.00,,,0.00,0.00,Weather logger V3.0.,2017-03-30 00:26:00,
2017-03-29 20:31:00,38.5,11.8,30.06,NNW,330,3.4,4.9,33,0.00,,,0.00,0.00,Weather logger V3.0.,2017-03-30 00:31:00,
2017-03-29 20:36:00,38.3,12.4,30.06,NNW,330,0.0,0.0,34,0.00,,,0.00,0.00,Weather logger V3.0.,2017-03-30 00:36:00,
2017-03-29 20:41:00,38.1,12.2,30.07,West,271,0.9,2.5,34,0.00,,,0.00,0.00,Weather logger V3.0.,2017-03-30 00:41:00,
2017-03-29 20:46:00,37.9,12.0,30.06,ESE,102,0.0,0.0,34,0.00,,,0.00,0.00,Weather logger V3.0.,2017-03-30 00:46:00,
2017-03-29 20:52:00,37.8,11.8,30.07,NNW,336,1.1,2.5,34,0.00,,,0.00,0.00,Weather logger V3.0.,2017-03-30 00:52:00,
2017-03-29 20:57:00,37.8,11.8,30.07,NNW,330,2.0,2.5,34,0.00,,,0.00,0.00,Weather logger V3.0.,2017-03-30 00:57:00,
2017-03-29 21:02:00,37.8,11.8,30.07,NNW,339,2.0,2.5,34,0.00,,,0.00,0.00,Weather logger V3.0.,2017-03-30 01:02:00,
2017-03-29 21:07:00,37.6,8.2,30.06,NNW,337,2.7,4.9,29,0.00,,,0.00,0.00,Weather logger V3.0.,2017-03-30 01:07:00,
2017-03-29 21:12:00,37.4,8.1,30.08,NNW,337,0.4,2.5,29,0.00,,,0.00,0.00,Weather logger V3.0.,2017-03-30 01:12:00,
2017-03-29 21:17:00,37.4,10.2,30.07,NW,320,1.8,4.9,32,0.00,,,0.00,0.00,Weather logger V3.0.,2017-03-30 01:17:00,
2017-03-29 21:22:00,37.2,7.2,30.07,West,267,0.2,2.5,28,0.00,,,0.00,0.00,Weather logger V3.0.,2017-03-30 01:22:00,
2017-03-29 21:27:00,37.2,7.2,30.08,WSW,251,0.2,2.5,28,0.00,,,0.00,0.00,Weather logger V3.0.,2017-03-30 01:27:00,
2017-03-29 21:33:00,37.0,7.0,30.08,NNW,339,2.9,4.9,28,0.00,,,0.00,0.00,Weather logger V3.0.,2017-03-30 01:33:00,
2017-03-29 21:38:00,37.0,7.0,30.08,NNW,338,1.3,2.5,28,0.00,,,0.00,0.00,Weather logger V3.0.,2017-03-30 01:38:00,
2017-03-29 21:43:00,37.0,9.9,30.08,NNW,337,2.0,4.9,32,0.00,,,0.00,0.00,Weather logger V3.0.,2017-03-30 01:43:00,
2017-03-29 21:48:00,37.0,7.0,30.08,NNW,327,2.0,2.5,28,0.00,,,0.00,0.00,Weather logger V3.0.,2017-03-30 01:48:00,
2017-03-29 21:53:00,37.0,7.0,30.08,NW,306,2.7,4.9,28,0.00,,,0.00,0.00,Weather logger V3.0.,2017-03-30 01:53:00,
2017-03-29 21:58:00,37.0,7.0,30.08,NW,326,2.7,4.9,28,0.00,,,0.00,0.00,Weather logger V3.0.,2017-03-30 01:58:00,
2017-03-29 22:03:00,37.0,7.0,30.08,NNW,341,0.0,0.0,28,0.00,,,0.00,0.00,Weather logger V3.0.,2017-03-30 02:03:00,
2017-03-29 22:08:00,36.9,6.8,30.08,NNW,333,4.5,4.9,28,0.00,,,0.00,0.00,Weather logger V3.0.,2017-03-30 02:08:00,
2017-03-29 22:13:00,36.9,6.8,30.07,NNW,343,0.2,2.5,28,0.00,,,0.00,0.00,Weather logger V3.0.,2017-03-30 02:13:00,
2017-03-29 22:18:00,36.7,7.3,30.08,WNW,298,1.3,2.5,29,0.00,,,0.00,0.00,Weather logger V3.0.,2017-03-30 02:18:00,
2017-03-29 22:23:00,36.5,8.1,30.08,NNW,336,3.4,4.9,30,0.00,,,0.00,0.00,Weather logger V3.0.,2017-03-30 02:23:00,
2017-03-29 22:28:00,36.5,8.1,30.08,NW,326,2.0,2.5,30,0.00,,,0.00,0.00,Weather logger V3.0.,2017-03-30 02:28:00,